createdAt,value
2023-03-18T00:02:21.824Z,22.46
2023-03-18T00:07:24.571Z,22.47
2023-03-18T00:12:27.882Z,22.48
2023-03-18T00:17:32.387Z,22.46
2023-03-18T00:22:36.002Z,22.35
2023-03-18T00:27:40.217Z,22.34
2023-03-18T00:32:44.406Z,22.40
2023-03-18T00:37:48.729Z,22.37
2023-03-18T00:42:57.558Z,22.33
2023-03-18T00:48:01.791Z,22.35
2023-03-18T00:53:05.327Z,22.34
2023-03-18T00:58:08.610Z,22.35
2023-03-18T01:03:14.104Z,22.21
2023-03-18T01:08:17.313Z,22.34
2023-03-18T01:13:21.304Z,22.23
2023-03-18T01:18:26.033Z,22.23
2023-03-18T01:23:30.218Z,22.24
2023-03-18T01:28:33.751Z,22.27
2023-03-18T01:33:39.021Z,22.20
2023-03-18T01:38:42.405Z,22.21
2023-03-18T01:43:48.501Z,22.21
2023-03-18T01:48:52.891Z,22.20
2023-03-18T01:54:00.135Z,22.18
2023-03-18T01:59:03.186Z,22.21
2023-03-18T02:04:10.349Z,22.21
2023-03-18T02:14:25.372Z,22.13
2023-03-18T02:19:43.547Z,22.10
2023-03-18T02:25:10.262Z,22.09
2023-03-18T02:30:19.157Z,22.02
2023-03-18T02:35:25.021Z,22.02
2023-03-18T02:40:31.781Z,21.98
2023-03-18T02:45:46.118Z,21.96
2023-03-18T02:50:50.212Z,21.92
2023-03-18T02:55:53.042Z,21.88
2023-03-18T03:00:58.444Z,21.85
2023-03-18T03:06:01.685Z,21.80
2023-03-18T03:11:05.485Z,21.78
2023-03-18T03:16:14.009Z,21.75
2023-03-18T03:21:17.708Z,21.71
2023-03-18T03:26:20.717Z,21.67
2023-03-18T03:31:26.651Z,21.62
2023-03-18T03:36:29.765Z,21.60
2023-03-18T03:41:32.877Z,21.57
2023-03-18T03:46:37.293Z,21.55
2023-03-18T03:51:40.578Z,21.53
2023-03-18T03:56:43.802Z,21.49
2023-03-18T04:01:48.399Z,21.46
2023-03-18T04:06:51.258Z,21.43
2023-03-18T04:11:54.065Z,21.41
2023-03-18T04:17:00.358Z,21.39
2023-03-18T04:22:04.659Z,21.36
2023-03-18T04:27:07.885Z,21.32
2023-03-18T04:32:12.483Z,21.31
2023-03-18T04:37:19.739Z,21.29
2023-03-18T04:42:24.455Z,21.25
2023-03-18T04:47:29.083Z,21.24
2023-03-18T04:52:33.588Z,21.22
2023-03-18T04:57:37.638Z,21.20
2023-03-18T05:02:45.279Z,21.19
2023-03-18T05:07:48.580Z,21.14
2023-03-18T05:12:54.380Z,21.13
2023-03-18T05:18:06.286Z,21.09
2023-03-18T05:23:10.385Z,21.08
2023-03-18T05:28:19.676Z,21.05
2023-03-18T05:33:35.990Z,21.05
2023-03-18T05:38:39.109Z,21.00
2023-03-18T05:43:42.703Z,21.00
2023-03-18T05:48:47.198Z,20.98
2023-03-18T05:53:50.480Z,20.95
2023-03-18T05:58:58.675Z,20.93
2023-03-18T06:04:24.896Z,20.91
2023-03-18T06:09:28.744Z,20.89
2023-03-18T06:14:31.637Z,20.88
2023-03-18T06:19:39.831Z,20.88
2023-03-18T06:24:45.942Z,20.86
2023-03-18T06:29:52.019Z,20.85
2023-03-18T06:34:56.785Z,20.86
2023-03-18T06:40:00.215Z,20.83
2023-03-18T06:45:03.273Z,20.82
2023-03-18T06:50:20.601Z,20.82
2023-03-18T06:55:23.841Z,20.81
2023-03-18T07:00:27.445Z,20.81
2023-03-18T07:05:33.282Z,20.82
2023-03-18T07:10:37.099Z,20.82
2023-03-18T07:15:46.649Z,20.83
2023-03-18T07:20:51.099Z,20.83
2023-03-18T07:25:54.155Z,20.83
2023-03-18T07:30:58.050Z,20.82
2023-03-18T07:36:02.331Z,20.83
2023-03-18T07:41:06.081Z,20.85
2023-03-18T07:46:09.045Z,20.85
2023-03-18T07:51:13.370Z,20.88
2023-03-18T07:56:16.289Z,20.88
2023-03-18T08:01:19.521Z,20.88
2023-03-18T08:06:23.957Z,20.31
2023-03-18T08:11:27.354Z,19.56
2023-03-18T08:16:30.208Z,19.16
2023-03-18T08:21:34.477Z,19.77
2023-03-18T08:26:37.618Z,20.27
2023-03-18T08:31:40.483Z,20.61
2023-03-18T08:36:45.083Z,20.72
2023-03-18T08:41:48.713Z,20.82
2023-03-18T08:46:51.636Z,20.87
2023-03-18T08:51:56.573Z,20.97
2023-03-18T08:57:00.545Z,21.03
2023-03-18T09:02:03.796Z,21.07
2023-03-18T09:07:08.069Z,21.10
2023-03-18T09:12:11.983Z,21.14
2023-03-18T09:17:14.857Z,21.20
2023-03-18T09:22:19.342Z,21.25
2023-03-18T09:27:22.166Z,21.30
2023-03-18T09:32:25.630Z,21.34
2023-03-18T09:37:29.833Z,21.37
2023-03-18T09:42:50.438Z,21.42
2023-03-18T09:48:09.652Z,21.45
2023-03-18T09:53:20.830Z,21.48
2023-03-18T09:58:29.577Z,21.45
2023-03-18T10:03:38.437Z,21.59
2023-03-18T10:08:54.297Z,21.65
2023-03-18T10:14:08.445Z,21.73
2023-03-18T10:19:11.379Z,21.78
2023-03-18T10:24:28.083Z,21.80
2023-03-18T10:29:40.620Z,21.82
2023-03-18T10:34:57.706Z,21.80
2023-03-18T10:40:02.318Z,21.83
2023-03-18T10:45:14.879Z,21.88
2023-03-18T10:50:21.510Z,21.89
2023-03-18T10:55:31.990Z,21.97
2023-03-18T11:00:35.609Z,22.02
2023-03-18T11:05:38.941Z,22.05
2023-03-18T11:10:47.564Z,22.10
2023-03-18T11:15:52.983Z,22.08
2023-03-18T11:21:00.876Z,22.02
2023-03-18T11:31:18.206Z,22.25
2023-03-18T11:36:24.985Z,22.32
2023-03-18T11:41:30.467Z,22.41
2023-03-18T11:46:37.556Z,22.42
2023-03-18T11:51:48.473Z,22.42
2023-03-18T11:56:57.267Z,22.13
2023-03-18T12:02:19.550Z,21.43
2023-03-18T12:07:42.902Z,21.24
2023-03-18T12:13:00.664Z,21.14
2023-03-18T12:18:18.024Z,21.08
2023-03-18T12:23:52.056Z,21.29
2023-03-18T12:29:36.284Z,21.06
2023-03-18T12:34:56.100Z,21.20
2023-03-18T12:40:27.514Z,21.37
2023-03-18T12:45:37.448Z,21.59
2023-03-18T12:50:48.426Z,21.83
2023-03-18T12:55:58.601Z,21.98
2023-03-18T13:01:09.798Z,22.08
2023-03-18T13:06:20.246Z,22.01
2023-03-18T13:11:36.046Z,22.07
2023-03-18T13:16:42.101Z,22.20
2023-03-18T13:21:51.522Z,22.24
2023-03-18T13:27:19.624Z,22.22
2023-03-18T13:32:41.363Z,22.26
2023-03-18T13:38:20.656Z,22.28
2023-03-18T13:43:26.591Z,22.35
2023-03-18T13:48:33.592Z,22.43
2023-03-18T13:53:43.982Z,22.41
2023-03-18T13:58:48.458Z,22.51
2023-03-18T14:03:59.780Z,22.53
2023-03-18T14:09:24.325Z,22.54
2023-03-18T14:14:57.603Z,22.65
2023-03-18T14:20:17.043Z,23.00
2023-03-18T14:25:24.454Z,22.90
2023-03-18T14:30:55.701Z,22.92
2023-03-18T14:36:03.273Z,22.86
2023-03-18T14:41:17.448Z,23.02
2023-03-18T14:46:25.284Z,23.16
2023-03-18T14:51:32.583Z,23.25
2023-03-18T14:56:40.461Z,23.30
2023-03-18T15:01:48.007Z,23.28
2023-03-18T15:06:53.277Z,23.27
2023-03-18T15:11:57.679Z,23.49
2023-03-18T15:17:02.254Z,23.49
2023-03-18T15:22:08.697Z,23.27
2023-03-18T15:27:16.001Z,23.36
2023-03-18T15:32:24.660Z,23.25
2023-03-18T15:37:42.153Z,23.34
2023-03-18T15:42:45.915Z,23.54
2023-03-18T15:47:49.291Z,23.67
2023-03-18T15:53:03.705Z,23.68
2023-03-18T15:58:24.069Z,23.66
2023-03-18T16:03:29.302Z,23.91
2023-03-18T16:08:33.715Z,23.76
2023-03-18T16:13:38.847Z,23.65
2023-03-18T16:18:43.322Z,23.72
2023-03-18T16:23:48.033Z,23.37
2023-03-18T16:28:50.762Z,23.75
2023-03-18T16:33:56.064Z,23.72
2023-03-18T16:39:00.128Z,23.82
2023-03-18T16:44:03.042Z,23.72
2023-03-18T16:49:06.077Z,23.72
2023-03-18T16:54:18.941Z,23.64
2023-03-18T16:59:22.166Z,23.58
2023-03-18T17:04:29.242Z,23.36
2023-03-18T17:09:33.577Z,23.37
2023-03-18T17:14:39.752Z,23.35
2023-03-18T17:19:42.631Z,23.25
2023-03-18T17:24:47.271Z,23.35
2023-03-18T17:29:50.607Z,23.40
2023-03-18T17:34:54.811Z,23.39
2023-03-18T17:39:59.254Z,23.12
2023-03-18T17:45:08.822Z,23.14
2023-03-18T17:50:15.005Z,23.29
2023-03-18T17:55:22.666Z,23.34
2023-03-18T18:00:27.419Z,23.31
2023-03-18T18:05:30.705Z,23.15
2023-03-18T18:10:35.366Z,23.23
2023-03-18T18:15:38.183Z,23.23
2023-03-18T18:20:41.121Z,23.15
2023-03-18T18:25:45.439Z,23.18
2023-03-18T18:30:48.653Z,23.12
2023-03-18T18:35:51.494Z,23.11
2023-03-18T18:40:57.412Z,23.13
2023-03-18T18:46:01.141Z,23.14
2023-03-18T18:51:04.724Z,23.09
2023-03-18T18:56:15.884Z,23.09
2023-03-18T19:01:19.734Z,23.04
2023-03-18T19:06:27.070Z,23.02
2023-03-18T19:11:31.474Z,23.08
2023-03-18T19:16:35.845Z,23.19
2023-03-18T19:21:38.617Z,23.06
2023-03-18T19:26:43.038Z,22.83
2023-03-18T19:31:45.903Z,22.88
2023-03-18T19:36:52.894Z,22.88
2023-03-18T19:41:57.124Z,22.95
2023-03-18T19:47:01.060Z,22.93
2023-03-18T19:52:04.137Z,23.00
2023-03-18T19:57:16.874Z,23.02
2023-03-18T20:02:22.790Z,23.02
2023-03-18T20:07:27.722Z,22.96
2023-03-18T20:12:35.770Z,23.00
2023-03-18T20:17:40.304Z,22.98
2023-03-18T20:22:48.104Z,23.01
2023-03-18T20:27:56.089Z,22.98
2023-03-18T20:33:00.156Z,23.05
2023-03-18T20:38:07.294Z,22.98
2023-03-18T20:43:15.379Z,23.07
2023-03-18T20:48:18.574Z,23.06
2023-03-18T20:53:24.648Z,22.97
2023-03-18T20:58:29.026Z,23.01
2023-03-18T21:03:34.430Z,22.94
2023-03-18T21:08:37.284Z,23.01
2023-03-18T21:13:41.712Z,23.01
2023-03-18T21:18:46.397Z,22.99
2023-03-18T21:23:49.787Z,22.95
2023-03-18T21:28:53.948Z,22.93
2023-03-18T21:33:57.456Z,23.04
2023-03-18T21:39:00.278Z,22.91
2023-03-18T21:44:04.516Z,22.89
2023-03-18T21:49:07.491Z,22.84
2023-03-18T21:54:18.324Z,22.82
2023-03-18T21:59:22.449Z,22.89
2023-03-18T22:04:25.241Z,22.83
2023-03-18T22:09:28.226Z,22.85
2023-03-18T22:14:32.417Z,22.81
2023-03-18T22:19:35.143Z,22.86
2023-03-18T22:24:37.938Z,22.88
2023-03-18T22:29:42.074Z,22.80
2023-03-18T22:34:45.048Z,22.80
2023-03-18T22:39:47.809Z,22.78
2023-03-18T22:44:52.327Z,22.88
2023-03-18T22:49:55.245Z,22.79
2023-03-18T22:55:00.974Z,22.84
2023-03-18T23:00:14.968Z,22.77
2023-03-18T23:05:20.416Z,22.77
2023-03-18T23:10:23.459Z,22.80
2023-03-18T23:15:27.585Z,22.83
2023-03-18T23:20:30.416Z,22.77
2023-03-18T23:25:33.402Z,22.82
2023-03-18T23:30:40.056Z,22.80
2023-03-18T23:35:43.959Z,22.73
2023-03-18T23:40:46.929Z,22.77
2023-03-18T23:45:51.241Z,22.76
2023-03-18T23:50:54.088Z,22.71
2023-03-18T23:55:56.958Z,22.75
